Time;durP1;ratioP1;P1;durP2;ratioP2;P2;SDS_P1;SDS_P2;PMS_P1;PMS_P2;Temp;Humidity;BMP_temperature;BMP_pressure;BME280_temperature;BME280_humidity;BME280_pressure;Samples;Min_cycle;Max_cycle;Signal;HPM_P1;HPM_P2
2021/09/28 00:00:57;;;;;;;;;;;;;;;7.53;81.34;101494.89;1956291;73;20116;-62
2021/09/28 00:03:25;;;;;;;;;;;;;;;7.53;80.93;101500.98;1956346;73;20178;-62
2021/09/28 00:05:53;;;;;;;;;;;;;;;7.52;80.57;101497.97;1956328;73;20143;-62
2021/09/28 00:08:21;;;;;;;;;;;;;;;7.51;80.46;101492.74;1956208;72;20116;-63
2021/09/28 00:10:49;;;;;;;;;;;;;;;7.48;80.46;101499.33;1956260;72;20190;-62
2021/09/28 00:13:16;;;;;;;;;;;;;;;7.47;80.21;101497.58;1956343;72;20100;-62
2021/09/28 00:15:44;;;;;;;;;;;;;;;7.46;80.00;101494.55;1956321;73;20108;-62
2021/09/28 00:18:12;;;;;;;;;;;;;;;7.44;80.01;101496.33;1956275;73;20112;-63
2021/09/28 00:20:40;;;;;;;;;;;;;;;7.41;79.87;101497.22;1956345;73;20116;-63
2021/09/28 00:23:08;;;;;;;;;;;;;;;7.38;79.64;101497.28;1956232;73;20138;-63
2021/09/28 00:25:35;;;;;;;;;;;;;;;7.36;79.83;101496.44;1956351;73;20168;-63
2021/09/28 00:28:04;;;;;;;;;;;;;;;7.30;80.39;101495.20;1956226;73;20108;-62
2021/09/28 00:30:31;;;;;;;;;;;;;;;7.23;80.83;101498.78;1956362;72;20116;-63
2021/09/28 00:32:59;;;;;;;;;;;;;;;7.20;80.86;101491.84;1956317;73;20104;-62
2021/09/28 00:35:27;;;;;;;;;;;;;;;7.15;80.84;101496.27;1956251;73;20190;-62
2021/09/28 00:37:54;;;;;;;;;;;;;;;7.10;81.09;101499.38;1956399;73;20143;-63
2021/09/28 00:40:23;;;;;;;;;;;;;;;7.00;81.23;101497.32;1956340;73;20108;-62
2021/09/28 00:42:51;;;;;;;;;;;;;;;6.93;81.65;101495.24;1956294;73;20156;-63
2021/09/28 00:45:18;;;;;;;;;;;;;;;6.91;81.65;101494.36;1951311;72;20119;-62
2021/09/28 00:47:46;;;;;;;;;;;;;;;6.91;81.99;101496.12;1943556;73;20163;-62
2021/09/28 00:50:14;;;;;;;;;;;;;;;6.89;82.12;101493.97;1943371;74;20105;-63
2021/09/28 00:52:42;;;;;;;;;;;;;;;6.89;82.00;101493.97;1943413;74;20112;-62
2021/09/28 00:55:10;;;;;;;;;;;;;;;6.87;82.39;101504.91;1943388;74;20112;-62
2021/09/28 00:57:39;;;;;;;;;;;;;;;6.81;82.44;101501.06;1943444;74;20139;-62
2021/09/28 01:00:09;;;;;;;;;;;;;;;6.75;82.49;101507.20;1943469;74;20147;-62
2021/09/28 01:02:37;;;;;;;;;;;;;;;6.74;82.15;101501.55;1943360;74;20117;-63
2021/09/28 01:05:07;;;;;;;;;;;;;;;6.75;82.17;101499.34;1943575;74;20171;-62
2021/09/28 01:07:35;;;;;;;;;;;;;;;6.73;82.50;101502.42;1943352;74;20117;-62
2021/09/28 01:10:03;;;;;;;;;;;;;;;6.70;82.18;101496.80;1943553;74;20105;-63
2021/09/28 01:12:31;;;;;;;;;;;;;;;6.69;81.86;101497.66;1943502;74;20108;-62
2021/09/28 01:14:59;;;;;;;;;;;;;;;6.67;81.71;101501.19;1943558;74;20109;-62
2021/09/28 01:17:26;;;;;;;;;;;;;;;6.63;82.47;101498.19;1943515;74;20241;-63
2021/09/28 01:19:54;;;;;;;;;;;;;;;6.59;82.48;101498.66;1943543;74;20139;-63
2021/09/28 01:22:22;;;;;;;;;;;;;;;6.57;82.08;101498.67;1943570;74;20179;-62
2021/09/28 01:24:50;;;;;;;;;;;;;;;6.54;82.27;101494.77;1943569;74;20101;-62
2021/09/28 01:27:18;;;;;;;;;;;;;;;6.53;82.33;101503.52;1943571;74;20121;-62
2021/09/28 01:29:46;;;;;;;;;;;;;;;6.53;82.44;101502.66;1943455;74;20167;-62
2021/09/28 01:32:13;;;;;;;;;;;;;;;6.50;82.51;101493.07;1943571;74;20184;-62
2021/09/28 01:34:41;;;;;;;;;;;;;;;6.47;82.69;101494.41;1943545;74;20109;-62
2021/09/28 01:37:09;;;;;;;;;;;;;;;6.42;82.82;101485.75;1943577;74;20101;-62
2021/09/28 01:39:37;;;;;;;;;;;;;;;6.35;82.57;101478.84;1943534;74;20117;-62
2021/09/28 01:42:05;;;;;;;;;;;;;;;6.30;82.26;101478.02;1943563;74;20116;-62
2021/09/28 01:44:34;;;;;;;;;;;;;;;6.25;82.09;101474.57;1943529;74;20113;-62
2021/09/28 01:47:02;;;;;;;;;;;;;;;6.19;82.45;101478.11;1951754;73;20128;-62
2021/09/28 01:49:30;;;;;;;;;;;;;;;6.17;82.13;101480.73;1953522;73;20100;-63
2021/09/28 01:51:58;;;;;;;;;;;;;;;6.19;81.89;101483.34;1953438;73;20147;-63
2021/09/28 01:54:26;;;;;;;;;;;;;;;6.19;81.69;101490.73;1953419;73;20147;-63
2021/09/28 01:56:54;;;;;;;;;;;;;;;6.16;81.63;101488.17;1953298;73;20112;-63
2021/09/28 01:59:21;;;;;;;;;;;;;;;6.14;81.68;101489.94;1953397;73;20108;-63
2021/09/28 02:01:49;;;;;;;;;;;;;;;6.12;81.59;101491.70;1953387;73;20142;-63
2021/09/28 02:04:17;;;;;;;;;;;;;;;6.11;81.49;101491.71;1953415;73;20155;-63
2021/09/28 02:06:45;;;;;;;;;;;;;;;6.08;81.51;101491.27;1953369;73;20116;-63
2021/09/28 02:09:14;;;;;;;;;;;;;;;6.06;82.02;101490.42;1953413;73;20100;-63
2021/09/28 02:11:42;;;;;;;;;;;;;;;6.06;82.10;101494.34;1953433;73;20151;-63
2021/09/28 02:14:10;;;;;;;;;;;;;;;6.07;82.08;101497.41;1953371;72;20146;-63
2021/09/28 02:16:38;;;;;;;;;;;;;;;6.06;82.20;101500.88;1953395;73;20116;-63
2021/09/28 02:19:06;;;;;;;;;;;;;;;6.05;82.58;101506.12;1953360;73;20120;-63
2021/09/28 02:21:34;;;;;;;;;;;;;;;6.03;83.11;101510.50;1953401;73;20134;-62
2021/09/28 02:24:02;;;;;;;;;;;;;;;6.00;83.40;101512.70;1953328;73;20104;-63
2021/09/28 02:26:30;;;;;;;;;;;;;;;5.96;83.57;101514.48;1953416;73;20108;-64
2021/09/28 02:28:57;;;;;;;;;;;;;;;5.94;83.39;101520.58;1953368;73;20104;-64
2021/09/28 02:31:25;;;;;;;;;;;;;;;5.93;83.17;101522.74;1953417;73;20113;-64
2021/09/28 02:33:53;;;;;;;;;;;;;;;5.88;83.73;101523.20;1953423;73;20139;-64
2021/09/28 02:36:21;;;;;;;;;;;;;;;5.84;83.93;101521.05;1953332;73;20108;-65
2021/09/28 02:38:49;;;;;;;;;;;;;;;5.84;84.08;101518.44;1953310;73;20257;-64
2021/09/28 02:41:17;;;;;;;;;;;;;;;5.85;84.27;101528.03;1953412;73;20147;-64
2021/09/28 02:43:45;;;;;;;;;;;;;;;5.84;83.88;101521.05;1953430;73;20105;-64
2021/09/28 02:46:13;;;;;;;;;;;;;;;5.86;83.80;101529.75;1953321;72;20146;-62
2021/09/28 02:48:41;;;;;;;;;;;;;;;5.85;83.97;101535.88;1953385;73;20155;-64
2021/09/28 02:51:08;;;;;;;;;;;;;;;5.86;84.04;101539.34;1953286;73;20112;-64
2021/09/28 02:53:36;;;;;;;;;;;;;;;5.83;83.82;101542.86;1953404;73;20113;-63
2021/09/28 02:56:04;;;;;;;;;;;;;;;5.81;83.61;101536.78;1953325;73;20112;-63
2021/09/28 02:58:32;;;;;;;;;;;;;;;5.78;83.41;101538.95;1953398;73;20143;-63
2021/09/28 03:01:00;;;;;;;;;;;;;;;5.78;83.35;101548.55;1953384;73;20112;-63
2021/09/28 03:03:27;;;;;;;;;;;;;;;5.76;83.49;101547.25;1953350;73;20191;-63
2021/09/28 03:05:55;;;;;;;;;;;;;;;5.75;83.34;101550.72;1953280;72;20116;-63
2021/09/28 03:08:23;;;;;;;;;;;;;;;5.73;83.41;101547.25;1953474;73;20147;-63
2021/09/28 03:10:51;;;;;;;;;;;;;;;5.70;83.99;101552.52;1953391;73;20112;-63
2021/09/28 03:13:19;;;;;;;;;;;;;;;5.70;84.03;101550.32;1953352;73;20120;-63
2021/09/28 03:15:47;;;;;;;;;;;;;;;5.68;84.08;101551.66;1953377;73;20270;-63
2021/09/28 03:18:15;;;;;;;;;;;;;;;5.67;83.96;101551.22;1953284;73;20116;-63
2021/09/28 03:20:42;;;;;;;;;;;;;;;5.62;84.02;101554.29;1953330;73;20112;-63
2021/09/28 03:23:10;;;;;;;;;;;;;;;5.58;84.08;101557.80;1953356;73;20104;-63
2021/09/28 03:25:41;;;;;;;;;;;;;;;5.54;84.43;101554.78;1953307;73;20182;-62
2021/09/28 03:28:08;;;;;;;;;;;;;;;5.50;84.56;101555.23;1953331;73;20190;-63
2021/09/28 03:30:37;;;;;;;;;;;;;;;5.48;84.76;101555.69;1953330;73;20109;-62
2021/09/28 03:33:05;;;;;;;;;;;;;;;5.45;84.75;101560.05;1953572;73;20429;-63
2021/09/28 03:35:33;;;;;;;;;;;;;;;5.42;84.63;101557.00;1953364;73;20112;-63
2021/09/28 03:38:01;;;;;;;;;;;;;;;5.45;84.78;101561.36;1953369;73;20112;-63
2021/09/28 03:40:30;;;;;;;;;;;;;;;5.51;84.43;101563.93;1953288;73;20116;-61
2021/09/28 03:42:58;;;;;;;;;;;;;;;5.55;84.37;101564.34;1953368;73;20471;-61
2021/09/28 03:45:25;;;;;;;;;;;;;;;5.60;84.08;101563.89;1953268;73;20112;-61
2021/09/28 03:47:53;;;;;;;;;;;;;;;5.65;84.20;101564.73;1953271;73;20120;-60
2021/09/28 03:50:21;;;;;;;;;;;;;;;5.68;84.29;101566.03;1953368;73;20143;-60
2021/09/28 03:52:49;;;;;;;;;;;;;;;5.72;84.23;101563.83;1953362;73;20128;-60
2021/09/28 03:55:19;;;;;;;;;;;;;;;5.78;84.08;101572.07;1953352;73;20155;-61
2021/09/28 03:57:48;;;;;;;;;;;;;;;5.84;83.88;101564.63;1953284;73;20116;-63
2021/09/28 04:00:17;;;;;;;;;;;;;;;5.88;83.83;101568.95;1952468;73;20139;-62
2021/09/28 04:02:45;;;;;;;;;;;;;;;5.87;83.76;101565.48;1953382;73;20395;-63
2021/09/28 04:05:13;;;;;;;;;;;;;;;5.85;83.86;101565.07;1953349;73;20120;-63
2021/09/28 04:07:41;;;;;;;;;;;;;;;5.83;83.82;101573.33;1953471;73;20142;-62
2021/09/28 04:10:10;;;;;;;;;;;;;;;5.83;83.93;101570.30;1953257;73;20151;-64
2021/09/28 04:12:38;;;;;;;;;;;;;;;5.91;83.93;101567.63;1953309;73;20433;-62
2021/09/28 04:15:07;;;;;;;;;;;;;;;6.04;83.74;101574.55;1953332;73;20100;-61
2021/09/28 04:17:34;;;;;;;;;;;;;;;6.18;83.69;101575.77;1953350;73;20423;-62
2021/09/28 04:20:03;;;;;;;;;;;;;;;6.36;83.62;101578.66;1953294;73;20100;-62
2021/09/28 04:22:31;;;;;;;;;;;;;;;6.50;83.63;101578.11;1953345;73;20108;-61
2021/09/28 04:25:01;;;;;;;;;;;;;;;6.69;83.45;101577.94;1953230;73;20112;-62
2021/09/28 04:27:29;;;;;;;;;;;;;;;6.82;83.29;101581.30;1953343;73;20151;-62
2021/09/28 04:29:56;;;;;;;;;;;;;;;6.92;83.16;101589.05;1953346;73;20113;-62
2021/09/28 04:32:24;;;;;;;;;;;;;;;7.01;82.79;101584.59;1953280;73;20128;-62
2021/09/28 04:34:52;;;;;;;;;;;;;;;7.04;82.32;101578.02;1953306;73;20112;-62
2021/09/28 04:37:20;;;;;;;;;;;;;;;7.11;82.03;101587.55;1953357;73;20116;-62
2021/09/28 04:39:48;;;;;;;;;;;;;;;7.19;81.77;101583.53;1953412;73;20194;-62
2021/09/28 04:42:16;;;;;;;;;;;;;;;7.32;81.45;101586.00;1953459;73;20139;-62
2021/09/28 04:44:44;;;;;;;;;;;;;;;7.48;81.26;101588.42;1953454;73;20100;-62
2021/09/28 04:47:11;;;;;;;;;;;;;;;7.59;81.17;101585.67;1953346;73;20150;-62
2021/09/28 04:49:39;;;;;;;;;;;;;;;7.66;81.13;101586.88;1953426;73;20142;-62
2021/09/28 04:52:07;;;;;;;;;;;;;;;7.70;81.00;101591.18;1953338;73;20406;-62
2021/09/28 04:54:35;;;;;;;;;;;;;;;7.81;81.16;101595.42;1953451;73;20112;-62
2021/09/28 04:57:03;;;;;;;;;;;;;;;8.04;80.95;101594.66;1953439;73;20107;-62
2021/09/28 04:59:32;;;;;;;;;;;;;;;8.39;80.82;101597.18;1953396;73;20116;-62
2021/09/28 05:02:00;;;;;;;;;;;;;;;8.77;80.84;101606.17;1953700;73;20096;-63
2021/09/28 05:04:28;;;;;;;;;;;;;;;9.25;80.98;101602.20;1953383;73;20206;-64
2021/09/28 05:06:56;;;;;;;;;;;;;;;9.94;80.36;101595.96;1953448;73;20167;-62
2021/09/28 05:09:24;;;;;;;;;;;;;;;10.72;80.31;101606.39;1953422;73;20143;-62
2021/09/28 05:11:53;;;;;;;;;;;;;;;11.55;80.30;101601.92;1953384;73;20147;-62
2021/09/28 05:14:21;;;;;;;;;;;;;;;12.27;79.59;101610.30;1953491;73;20378;-62
2021/09/28 05:16:48;;;;;;;;;;;;;;;12.86;78.79;101617.13;1953446;73;20201;-62
2021/09/28 05:19:16;;;;;;;;;;;;;;;13.49;78.32;101620.19;1953342;73;20180;-62
2021/09/28 05:21:44;;;;;;;;;;;;;;;14.01;76.82;101620.45;1953380;73;20116;-62
2021/09/28 05:24:12;;;;;;;;;;;;;;;14.53;76.80;101613.02;1953415;73;20193;-62
2021/09/28 05:26:40;;;;;;;;;;;;;;;15.16;76.33;101618.78;1953440;73;20116;-62
2021/09/28 05:29:08;;;;;;;;;;;;;;;15.78;75.49;101616.41;1953488;73;20405;-62
2021/09/28 05:31:36;;;;;;;;;;;;;;;16.42;74.62;101616.06;1953381;73;20140;-64
2021/09/28 05:34:04;;;;;;;;;;;;;;;16.91;73.79;101620.23;1953457;73;20120;-62
2021/09/28 05:36:31;;;;;;;;;;;;;;;17.40;73.11;101620.80;1953414;73;20142;-62
2021/09/28 05:39:00;;;;;;;;;;;;;;;17.91;72.24;101622.44;1953410;73;20199;-62
2021/09/28 05:41:28;;;;;;;;;;;;;;;18.37;70.88;101617.63;1953362;73;20156;-62
2021/09/28 05:43:56;;;;;;;;;;;;;;;18.69;71.03;101623.73;1953434;73;20147;-62
2021/09/28 05:46:23;;;;;;;;;;;;;;;19.11;70.69;101610.61;1953375;73;20187;-62
2021/09/28 05:48:51;;;;;;;;;;;;;;;19.50;69.94;101617.09;1953375;73;20146;-62
2021/09/28 05:51:21;;;;;;;;;;;;;;;19.75;69.24;101616.41;1953377;73;20121;-63
2021/09/28 05:53:49;;;;;;;;;;;;;;;19.84;66.57;101618.98;1953429;73;20382;-62
2021/09/28 05:56:16;;;;;;;;;;;;;;;20.09;68.71;101620.09;1953422;73;20147;-62
2021/09/28 05:58:44;;;;;;;;;;;;;;;20.42;68.52;101620.52;1953487;73;20112;-62
2021/09/28 06:01:12;;;;;;;;;;;;;;;20.62;66.23;101622.39;1953366;73;20116;-62
2021/09/28 06:03:40;;;;;;;;;;;;;;;20.83;67.77;101618.72;1953415;73;20113;-62
2021/09/28 06:06:08;;;;;;;;;;;;;;;21.17;67.65;101619.93;1953418;73;20186;-62
2021/09/28 06:08:38;;;;;;;;;;;;;;;21.46;64.79;101617.52;1953516;73;20160;-62
2021/09/28 06:11:06;;;;;;;;;;;;;;;21.64;63.79;101621.56;1953402;73;20112;-62
2021/09/28 06:13:34;;;;;;;;;;;;;;;21.78;66.15;101620.09;1953375;73;20179;-63
2021/09/28 06:16:01;;;;;;;;;;;;;;;21.81;64.24;101621.67;1953419;73;20116;-62
2021/09/28 06:18:29;;;;;;;;;;;;;;;21.86;62.81;101623.55;1953429;73;20116;-62
2021/09/28 06:20:57;;;;;;;;;;;;;;;21.77;60.22;101628.23;1953345;73;20135;-62
2021/09/28 06:23:25;;;;;;;;;;;;;;;21.83;62.71;101625.59;1953401;73;20116;-62
2021/09/28 06:25:53;;;;;;;;;;;;;;;21.80;61.11;101632.05;1953310;73;20374;-63
2021/09/28 06:28:21;;;;;;;;;;;;;;;22.04;61.01;101632.08;1978211;72;20097;-61
2021/09/28 06:30:48;;;;;;;;;;;;;;;22.28;61.43;101626.75;1995569;72;20191;-61
2021/09/28 06:33:17;;;;;;;;;;;;;;;22.44;55.65;101630.95;1995555;72;20109;-61
2021/09/28 06:35:45;;;;;;;;;;;;;;;22.47;53.11;101625.38;1995583;72;20168;-61
2021/09/28 06:38:13;;;;;;;;;;;;;;;22.27;50.49;101630.39;1995626;72;20140;-62
2021/09/28 06:40:41;;;;;;;;;;;;;;;22.24;51.74;101626.55;1995507;72;20185;-62
2021/09/28 06:43:09;;;;;;;;;;;;;;;22.02;48.96;101627.78;1995521;72;20149;-61
2021/09/28 06:45:37;;;;;;;;;;;;;;;21.74;47.63;101623.09;1995560;72;20109;-61
2021/09/28 06:48:05;;;;;;;;;;;;;;;21.63;47.34;101629.70;1994979;72;20147;-61
2021/09/28 06:50:33;;;;;;;;;;;;;;;21.76;45.28;101639.91;1988334;72;20152;-61
2021/09/28 06:53:01;;;;;;;;;;;;;;;21.85;46.65;101631.20;1988248;72;20110;-61
2021/09/28 06:55:29;;;;;;;;;;;;;;;21.78;46.34;101637.97;1988321;72;20149;-61
2021/09/28 06:57:57;;;;;;;;;;;;;;;21.96;46.31;101637.98;1988428;72;20098;-61
2021/09/28 07:00:25;;;;;;;;;;;;;;;22.29;45.00;101640.52;1988244;72;20144;-61
2021/09/28 07:02:53;;;;;;;;;;;;;;;22.58;45.60;101637.48;1988378;72;20110;-61
2021/09/28 07:05:21;;;;;;;;;;;;;;;22.99;45.72;101636.63;1988283;72;20122;-62
2021/09/28 07:07:49;;;;;;;;;;;;;;;23.47;46.04;101630.59;1988356;72;20181;-61
2021/09/28 07:10:18;;;;;;;;;;;;;;;23.91;44.47;101630.72;1988358;72;20110;-61
2021/09/28 07:12:46;;;;;;;;;;;;;;;24.20;45.36;101635.05;1988349;72;20110;-61
2021/09/28 07:15:15;;;;;;;;;;;;;;;24.63;45.32;101636.02;1988332;72;20114;-61
2021/09/28 07:18:02;;;;;;;;;;;;;;;24.85;43.42;101641.27;1919311;75;20146;-62
2021/09/28 07:20:30;;;;;;;;;;;;;;;25.11;44.31;101632.78;1919356;75;20110;-61
2021/09/28 07:22:58;;;;;;;;;;;;;;;25.62;44.03;101632.42;1919431;75;20156;-61
2021/09/28 07:25:26;;;;;;;;;;;;;;;25.91;44.86;101632.98;1919560;75;20196;-62
2021/09/28 07:28:00;;;;;;;;;;;;;;;26.18;44.93;101630.51;1919429;75;20373;-61
2021/09/28 07:30:29;;;;;;;;;;;;;;;26.35;44.62;101620.00;1919307;75;20145;-62
2021/09/28 07:32:59;;;;;;;;;;;;;;;26.51;41.11;101625.69;1919609;75;20384;-61
2021/09/28 07:35:27;;;;;;;;;;;;;;;26.17;39.72;101620.72;1919401;75;20380;-61
2021/09/28 07:37:56;;;;;;;;;;;;;;;26.22;37.60;101627.53;1919342;75;20118;-61
2021/09/28 07:40:24;;;;;;;;;;;;;;;25.97;38.70;101627.09;1919388;75;20117;-61
2021/09/28 07:42:52;;;;;;;;;;;;;;;26.37;40.51;101623.41;1919315;75;20134;-62
2021/09/28 07:45:19;;;;;;;;;;;;;;;26.88;40.42;101620.91;1919363;75;20111;-61
2021/09/28 07:47:47;;;;;;;;;;;;;;;27.19;39.93;101623.41;1919527;75;20119;-62
2021/09/28 07:50:17;;;;;;;;;;;;;;;27.31;38.91;101623.58;1919419;75;20141;-61
2021/09/28 07:52:45;;;;;;;;;;;;;;;27.59;39.64;101623.61;1919260;75;20118;-61
2021/09/28 07:55:13;;;;;;;;;;;;;;;27.83;39.72;101617.66;1919413;75;20146;-61
2021/09/28 07:57:41;;;;;;;;;;;;;;;27.91;35.76;101608.81;1919265;75;20107;-62
2021/09/28 08:00:09;;;;;;;;;;;;;;;27.35;33.94;101609.27;1919376;75;20114;-61
2021/09/28 08:02:40;;;;;;;;;;;;;;;27.02;33.71;101618.27;1919072;75;20122;-61
2021/09/28 08:05:09;;;;;;;;;;;;;;;26.85;34.45;101620.35;1919360;75;20111;-61
2021/09/28 08:07:38;;;;;;;;;;;;;;;26.94;33.00;101624.38;1919376;75;20428;-61
2021/09/28 08:10:07;;;;;;;;;;;;;;;26.78;33.33;101620.06;1919250;75;20153;-62
2021/09/28 08:12:36;;;;;;;;;;;;;;;26.98;33.95;101615.98;1919367;75;20118;-61
2021/09/28 08:15:04;;;;;;;;;;;;;;;27.04;33.50;101612.69;1919429;74;20140;-61
2021/09/28 08:17:32;;;;;;;;;;;;;;;27.06;33.56;101605.31;1919325;74;20162;-61
2021/09/28 08:20:00;;;;;;;;;;;;;;;27.38;33.94;101609.48;1919353;75;20118;-62
2021/09/28 08:22:28;;;;;;;;;;;;;;;27.60;32.33;101605.55;1919326;75;20114;-62
2021/09/28 08:25:06;;;;;;;;;;;;;;;27.53;32.76;101608.83;1919336;75;20235;-61
2021/09/28 08:30:12;;;;;;;;;;;;;;;27.40;33.11;101604.78;1919351;75;20114;-61
2021/09/28 08:32:39;;;;;;;;;;;;;;;27.86;33.31;101596.20;1919366;74;20149;-61
2021/09/28 08:35:07;;;;;;;;;;;;;;;27.93;31.94;101595.13;1919260;75;20141;-62
2021/09/28 08:37:35;;;;;;;;;;;;;;;28.06;32.66;101595.59;1919351;75;20119;-61
2021/09/28 08:40:03;;;;;;;;;;;;;;;28.60;33.01;101595.59;1919400;75;20114;-62
2021/09/28 08:42:31;;;;;;;;;;;;;;;28.67;28.78;101598.02;1919331;75;20110;-61
2021/09/28 08:44:59;;;;;;;;;;;;;;;28.23;28.63;101602.02;1919356;75;20115;-61
2021/09/28 08:47:40;;;;;;;;;;;;;;;27.84;27.55;101598.20;1919349;75;20162;-61
2021/09/28 08:50:10;;;;;;;;;;;;;;;27.33;26.51;101594.58;1919326;75;20106;-61
2021/09/28 08:52:40;;;;;;;;;;;;;;;26.91;27.67;101600.38;1919348;75;20130;-61
2021/09/28 08:55:08;;;;;;;;;;;;;;;26.90;27.85;101601.35;1919334;75;20407;-61
2021/09/28 08:57:36;;;;;;;;;;;;;;;26.84;28.29;101597.89;1919358;75;20115;-61
2021/09/28 09:00:08;;;;;;;;;;;;;;;27.11;29.18;101600.30;1919264;75;20118;-62
2021/09/28 09:02:39;;;;;;;;;;;;;;;27.21;28.29;101602.48;1918651;75;20102;-61
2021/09/28 09:05:14;;;;;;;;;;;;;;;27.47;29.42;101599.13;1919139;75;20118;-61
2021/09/28 09:07:38;;;;;;;;;;;;;;;27.83;30.06;101595.14;1918296;75;20106;-61
2021/09/28 09:10:06;;;;;;;;;;;;;;;28.04;30.02;101597.61;1919322;75;20102;-61
2021/09/28 09:12:34;;;;;;;;;;;;;;;27.96;30.19;101600.22;1919304;75;20114;-62
2021/09/28 09:15:20;;;;;;;;;;;;;;;27.46;31.14;101606.87;1919313;75;20299;-61
2021/09/28 09:17:50;;;;;;;;;;;;;;;27.66;31.06;101603.06;1919256;74;20118;-62
2021/09/28 09:20:22;;;;;;;;;;;;;;;28.10;30.80;101603.23;1919430;75;20114;-62
2021/09/28 09:22:49;;;;;;;;;;;;;;;28.06;30.11;101601.85;1919285;75;20111;-62
2021/09/28 09:25:21;;;;;;;;;;;;;;;27.76;31.09;101602.16;1919305;75;20123;-62
2021/09/28 09:27:50;;;;;;;;;;;;;;;26.69;32.43;101606.08;1919324;75;20114;-61
2021/09/28 09:30:19;;;;;;;;;;;;;;;27.27;32.36;101605.96;1919497;75;20149;-62
2021/09/28 09:32:55;;;;;;;;;;;;;;;27.91;31.82;101602.88;1919550;75;20106;-61
2021/09/28 09:35:30;;;;;;;;;;;;;;;28.29;31.11;101606.80;1919475;75;20107;-62
2021/09/28 09:38:06;;;;;;;;;;;;;;;28.24;30.53;101606.44;1919412;74;20221;-61
2021/09/28 09:40:41;;;;;;;;;;;;;;;27.55;30.49;101608.69;1919415;75;20381;-61
2021/09/28 09:43:09;;;;;;;;;;;;;;;27.63;30.82;101606.57;1919405;75;20384;-62
2021/09/28 09:45:37;;;;;;;;;;;;;;;27.93;30.79;101610.86;1919457;75;20196;-61
2021/09/28 09:48:12;;;;;;;;;;;;;;;28.10;31.09;101611.36;1919360;75;20118;-63
2021/09/28 09:50:40;;;;;;;;;;;;;;;28.21;31.11;101616.22;1917845;75;20114;-62
2021/09/28 09:53:08;;;;;;;;;;;;;;;27.89;31.44;101604.89;1919456;75;20114;-62
2021/09/28 09:55:39;;;;;;;;;;;;;;;27.62;31.66;101615.70;1919424;75;20165;-62
2021/09/28 09:58:08;;;;;;;;;;;;;;;27.77;31.64;101610.64;1919575;75;20166;-61
2021/09/28 10:00:39;;;;;;;;;;;;;;;27.99;30.77;101604.82;1919374;75;20180;-62
2021/09/28 10:03:06;;;;;;;;;;;;;;;27.73;29.02;101605.52;1919405;75;20368;-62
2021/09/28 10:05:35;;;;;;;;;;;;;;;27.41;29.91;101601.06;1919539;75;20377;-62
2021/09/28 10:08:07;;;;;;;;;;;;;;;27.40;29.49;101610.19;1919407;75;20371;-62
2021/09/28 10:10:34;;;;;;;;;;;;;;;27.55;29.45;101611.39;1919366;75;20110;-62
2021/09/28 10:13:03;;;;;;;;;;;;;;;27.28;28.37;101604.09;1919387;75;20114;-62
2021/09/28 10:15:32;;;;;;;;;;;;;;;27.06;28.75;101612.07;1919442;75;20165;-62
2021/09/28 10:18:00;;;;;;;;;;;;;;;26.65;27.83;101610.07;1922068;74;20110;-62
2021/09/28 10:20:29;;;;;;;;;;;;;;;26.45;28.26;101607.38;1929025;74;20118;-62
2021/09/28 10:23:14;;;;;;;;;;;;;;;26.58;28.43;101607.92;1929145;74;20122;-62
2021/09/28 10:25:44;;;;;;;;;;;;;;;26.65;28.63;101606.02;1928939;74;20114;-62
2021/09/28 10:28:14;;;;;;;;;;;;;;;26.86;28.88;101604.00;1929130;74;20148;-62
2021/09/28 10:30:43;;;;;;;;;;;;;;;27.16;28.92;101606.12;1929006;74;20114;-62
2021/09/28 10:33:25;;;;;;;;;;;;;;;27.08;27.85;101609.56;1928855;74;20114;-63
2021/09/28 10:35:54;;;;;;;;;;;;;;;26.94;27.64;101612.72;1929004;74;20380;-63
2021/09/28 10:38:24;;;;;;;;;;;;;;;27.04;28.21;101604.58;1928108;74;20161;-62
2021/09/28 10:40:52;;;;;;;;;;;;;;;27.19;28.43;101604.48;1926861;74;20144;-61
2021/09/28 10:43:30;;;;;;;;;;;;;;;27.22;28.49;101605.52;1929013;74;20140;-62
2021/09/28 10:46:00;;;;;;;;;;;;;;;27.31;28.80;101599.25;1929011;74;20114;-61
2021/09/28 10:48:30;;;;;;;;;;;;;;;27.40;28.82;101593.45;1928988;74;20114;-63
2021/09/28 10:51:06;;;;;;;;;;;;;;;27.24;28.44;101595.44;1929127;74;20257;-62
2021/09/28 10:53:36;;;;;;;;;;;;;;;26.79;28.28;101596.13;1929023;74;20110;-62
2021/09/28 10:56:10;;;;;;;;;;;;;;;25.73;26.86;101601.77;1929133;74;20376;-62
2021/09/28 10:58:54;;;;;;;;;;;;;;;24.24;28.59;101601.52;1927913;74;20118;-61
2021/09/28 11:01:24;;;;;;;;;;;;;;;23.80;30.04;101599.31;1929027;74;20407;-62
2021/09/28 11:03:55;;;;;;;;;;;;;;;24.14;30.54;101603.25;1929000;74;20141;-62
2021/09/28 11:06:40;;;;;;;;;;;;;;;24.51;30.50;101602.01;1929090;74;20146;-62
2021/09/28 11:09:08;;;;;;;;;;;;;;;24.77;30.17;101592.61;1929081;74;20169;-62
2021/09/28 11:11:36;;;;;;;;;;;;;;;25.00;30.60;101593.30;1929040;74;20102;-62
2021/09/28 11:14:06;;;;;;;;;;;;;;;25.27;30.68;101585.65;1928988;74;20113;-62
2021/09/28 11:16:41;;;;;;;;;;;;;;;25.27;31.05;101589.22;1928991;74;20384;-62
2021/09/28 11:19:09;;;;;;;;;;;;;;;25.20;31.32;101593.41;1923651;74;20153;-62
2021/09/28 11:21:38;;;;;;;;;;;;;;;25.16;31.31;101596.86;1919443;75;20130;-62
2021/09/28 11:24:07;;;;;;;;;;;;;;;24.90;31.33;101601.83;1919290;75;20110;-62
2021/09/28 11:26:41;;;;;;;;;;;;;;;24.51;31.96;101597.47;1919496;75;20110;-62
2021/09/28 11:29:10;;;;;;;;;;;;;;;23.75;32.16;101597.45;1919472;75;20119;-62
2021/09/28 11:31:39;;;;;;;;;;;;;;;22.94;32.22;101608.77;1919450;75;20192;-61
2021/09/28 11:34:07;;;;;;;;;;;;;;;22.39;32.91;101608.52;1919446;75;20161;-61
2021/09/28 11:36:36;;;;;;;;;;;;;;;21.98;32.83;101606.57;1919352;75;20144;-63
2021/09/28 11:39:06;;;;;;;;;;;;;;;21.71;33.45;101609.44;1919427;75;20145;-62
2021/09/28 11:41:36;;;;;;;;;;;;;;;21.52;33.48;101612.56;1889114;73;20108;-62
2021/09/28 11:44:06;;;;;;;;;;;;;;;21.43;34.17;101613.68;1890469;76;20469;-62
2021/09/28 11:46:34;;;;;;;;;;;;;;;21.35;34.02;101607.53;1890448;76;20375;-61
2021/09/28 11:49:07;;;;;;;;;;;;;;;21.19;34.42;101604.61;1890352;76;20355;-62
2021/09/28 11:51:36;;;;;;;;;;;;;;;21.01;34.55;101617.94;1890509;76;20116;-62
2021/09/28 11:54:05;;;;;;;;;;;;;;;20.86;34.72;101613.63;1890365;76;20120;-62
2021/09/28 11:56:35;;;;;;;;;;;;;;;20.65;34.08;101617.30;1888944;76;20151;-62
2021/09/28 11:59:03;;;;;;;;;;;;;;;20.41;34.99;101611.26;1890390;76;20485;-62
2021/09/28 12:01:31;;;;;;;;;;;;;;;20.35;35.60;101611.19;1890272;76;20399;-62
2021/09/28 12:09:51;;;;;;;;;;;;;;;20.11;36.41;101606.98;1890375;76;20117;-63
2021/09/28 12:12:22;;;;;;;;;;;;;;;20.01;36.75;101608.08;1890382;76;20128;-62
2021/09/28 12:14:51;;;;;;;;;;;;;;;20.00;36.54;101615.70;1890497;76;20206;-62
2021/09/28 12:17:23;;;;;;;;;;;;;;;19.89;36.18;101613.36;1890359;76;20385;-62
2021/09/28 12:19:58;;;;;;;;;;;;;;;19.70;36.93;101612.29;1890380;76;20132;-62
2021/09/28 12:22:27;;;;;;;;;;;;;;;19.65;37.25;101613.94;1890288;76;20147;-62
2021/09/28 12:24:55;;;;;;;;;;;;;;;19.63;37.62;101615.36;1890240;76;20136;-62
2021/09/28 12:27:24;;;;;;;;;;;;;;;19.68;37.73;101623.09;1890451;75;20147;-62
2021/09/28 12:29:53;;;;;;;;;;;;;;;19.69;37.93;101616.78;1890371;75;20120;-62
2021/09/28 12:32:26;;;;;;;;;;;;;;;19.76;37.89;101622.64;1890442;76;20108;-62
2021/09/28 12:34:55;;;;;;;;;;;;;;;19.80;38.10;101616.98;1890287;76;20108;-62
2021/09/28 12:37:23;;;;;;;;;;;;;;;19.83;37.83;101627.97;1890363;76;20108;-62
2021/09/28 12:39:59;;;;;;;;;;;;;;;19.73;37.48;101629.02;1890261;75;20120;-64
2021/09/28 12:42:26;;;;;;;;;;;;;;;19.65;37.71;101633.48;1861735;75;20121;-62
2021/09/28 12:44:59;;;;;;;;;;;;;;;19.47;37.38;101638.64;1878638;76;20121;-62
2021/09/28 12:47:29;;;;;;;;;;;;;;;19.29;37.33;101641.52;1878607;76;20152;-62
2021/09/28 12:49:58;;;;;;;;;;;;;;;19.15;37.69;101643.31;1878745;76;20151;-62
2021/09/28 12:52:25;;;;;;;;;;;;;;;19.12;38.06;101641.67;1878692;76;20394;-62
2021/09/28 12:54:53;;;;;;;;;;;;;;;19.06;38.11;101641.56;1878674;76;20155;-62
2021/09/28 12:57:21;;;;;;;;;;;;;;;19.01;38.40;101640.13;1878710;76;20148;-62